Time;durP1;ratioP1;P1;durP2;ratioP2;P2;SDS_P1;SDS_P2;PMS_P1;PMS_P2;Temp;Humidity;BMP_temperature;BMP_pressure;BME280_temperature;BME280_humidity;BME280_pressure;Samples;Min_cycle;Max_cycle;Signal;HPM_P1;HPM_P2
2021/09/16 00:01:59;;;;;;;4.93;1.13;;;;;;;;;;4961303;28;20194;-77
2021/09/16 00:04:25;;;;;;;4.37;1.13;;;;;;;;;;4961200;28;20242;-77
2021/09/16 00:06:50;;;;;;;6.80;1.63;;;;;;;;;;4958782;28;20182;-77
2021/09/16 00:09:15;;;;;;;2.50;0.93;;;;;;;;;;4961701;28;20175;-77
2021/09/16 00:11:40;;;;;;;4.37;1.10;;;;;;;;;;4959165;28;20702;-76
2021/09/16 00:14:06;;;;;;;3.17;1.27;;;;;;;;;;4958553;28;20655;-77
2021/09/16 00:16:31;;;;;;;2.90;1.00;;;;;;;;;;4957374;28;20663;-76
2021/09/16 00:18:56;;;;;;;4.20;1.20;;;;;;;;;;4958670;28;20273;-77
2021/09/16 00:21:21;;;;;;;2.57;1.07;;;;;;;;;;4959101;28;20191;-78
2021/09/16 00:23:47;;;;;;;2.63;0.87;;;;;;;;;;4958960;28;20663;-78
2021/09/16 00:26:12;;;;;;;4.90;1.20;;;;;;;;;;4960729;28;21070;-77
2021/09/16 00:28:37;;;;;;;3.87;0.80;;;;;;;;;;4957618;28;20218;-77
2021/09/16 00:31:02;;;;;;;5.43;1.00;;;;;;;;;;4958311;28;20192;-77
2021/09/16 00:33:28;;;;;;;4.77;1.63;;;;;;;;;;4957645;28;20179;-77
2021/09/16 00:35:53;;;;;;;4.77;1.07;;;;;;;;;;4959805;28;20187;-78
2021/09/16 00:38:18;;;;;;;4.57;1.20;;;;;;;;;;4952185;28;20310;-77
2021/09/16 00:40:43;;;;;;;4.30;1.10;;;;;;;;;;4957760;28;20186;-77
2021/09/16 00:43:09;;;;;;;1.70;1.10;;;;;;;;;;4957637;28;20325;-77
2021/09/16 00:45:34;;;;;;;7.90;1.43;;;;;;;;;;4955748;28;20179;-78
2021/09/16 00:47:59;;;;;;;2.60;0.70;;;;;;;;;;4957574;28;20631;-78
2021/09/16 00:50:25;;;;;;;6.77;0.80;;;;;;;;;;4956766;28;20197;-78
2021/09/16 00:52:50;;;;;;;4.20;1.10;;;;;;;;;;4958938;28;20266;-78
2021/09/16 00:55:16;;;;;;;2.90;0.90;;;;;;;;;;4956926;28;20559;-77
2021/09/16 00:57:47;;;;;;;5.00;1.10;;;;;;;;;;4963787;28;20199;-77
2021/09/16 01:00:13;;;;;;;4.27;1.10;;;;;;;;;;4963346;28;20182;-76
2021/09/16 01:02:38;;;;;;;3.57;0.90;;;;;;;;;;4961890;28;20801;-78
2021/09/16 01:05:04;;;;;;;2.23;0.80;;;;;;;;;;4963406;28;20662;-77
2021/09/16 01:07:30;;;;;;;4.53;1.10;;;;;;;;;;4963083;28;20714;-77
2021/09/16 01:09:57;;;;;;;4.27;1.00;;;;;;;;;;4965143;28;20430;-76
2021/09/16 01:12:22;;;;;;;6.00;0.93;;;;;;;;;;4961337;28;20466;-76
2021/09/16 01:14:48;;;;;;;2.93;1.10;;;;;;;;;;4961901;28;20793;-77
2021/09/16 01:17:13;;;;;;;5.00;0.90;;;;;;;;;;4962382;28;20203;-77
2021/09/16 01:19:38;;;;;;;3.33;1.07;;;;;;;;;;4961791;28;20294;-77
2021/09/16 01:22:04;;;;;;;2.90;0.80;;;;;;;;;;4959600;28;20198;-78
2021/09/16 01:24:29;;;;;;;3.80;0.80;;;;;;;;;;4959550;28;20626;-77
2021/09/16 01:26:54;;;;;;;3.40;1.20;;;;;;;;;;4962129;28;20658;-78
2021/09/16 01:29:19;;;;;;;4.07;1.27;;;;;;;;;;4962062;28;20230;-77
2021/09/16 01:31:47;;;;;;;6.77;1.13;;;;;;;;;;4960787;28;20282;-77
2021/09/16 01:34:13;;;;;;;2.30;1.03;;;;;;;;;;4960177;28;20183;-77
2021/09/16 01:36:39;;;;;;;4.90;1.10;;;;;;;;;;4962158;28;20430;-78
2021/09/16 01:39:06;;;;;;;2.87;1.10;;;;;;;;;;4958866;28;20457;-78
2021/09/16 01:41:31;;;;;;;2.43;1.07;;;;;;;;;;4960380;28;20955;-77
2021/09/16 01:43:56;;;;;;;4.40;1.50;;;;;;;;;;4961643;28;20435;-77
2021/09/16 01:46:22;;;;;;;6.83;1.10;;;;;;;;;;4960943;28;20187;-78
2021/09/16 01:48:47;;;;;;;5.50;1.40;;;;;;;;;;4962228;28;20249;-77
2021/09/16 01:51:12;;;;;;;4.77;1.23;;;;;;;;;;4960303;28;20743;-78
2021/09/16 01:53:37;;;;;;;4.60;1.30;;;;;;;;;;4960574;28;20174;-77
2021/09/16 01:56:03;;;;;;;10.00;1.60;;;;;;;;;;4960142;28;20187;-77
2021/09/16 01:58:28;;;;;;;3.53;1.00;;;;;;;;;;4960176;28;20360;-78
2021/09/16 02:00:53;;;;;;;5.93;1.10;;;;;;;;;;4961662;28;20647;-77
2021/09/16 02:03:18;;;;;;;6.43;1.30;;;;;;;;;;4962389;28;20214;-78
2021/09/16 02:05:44;;;;;;;4.20;1.20;;;;;;;;;;4960867;28;20195;-78
2021/09/16 02:08:09;;;;;;;4.27;1.30;;;;;;;;;;4959830;28;20207;-77
2021/09/16 02:10:34;;;;;;;4.27;1.40;;;;;;;;;;4961346;28;20664;-78
2021/09/16 02:12:59;;;;;;;4.13;1.40;;;;;;;;;;4962158;28;20562;-78
2021/09/16 02:15:25;;;;;;;4.97;1.30;;;;;;;;;;4962197;28;20556;-78
2021/09/16 02:17:50;;;;;;;7.20;1.20;;;;;;;;;;4959397;28;20297;-78
2021/09/16 02:20:15;;;;;;;4.07;1.27;;;;;;;;;;4957640;28;20280;-77
2021/09/16 02:22:41;;;;;;;4.13;1.17;;;;;;;;;;4959091;28;20214;-77
2021/09/16 02:25:07;;;;;;;4.47;1.20;;;;;;;;;;4956400;28;20182;-76
2021/09/16 02:27:32;;;;;;;4.67;1.30;;;;;;;;;;4957749;28;20477;-77
2021/09/16 02:29:57;;;;;;;3.80;1.30;;;;;;;;;;4958073;28;20186;-76
2021/09/16 02:32:23;;;;;;;6.43;1.50;;;;;;;;;;4959567;28;20213;-77
2021/09/16 02:34:48;;;;;;;4.57;1.60;;;;;;;;;;4959099;28;20218;-77
2021/09/16 02:37:13;;;;;;;8.20;2.10;;;;;;;;;;4960501;28;20214;-77
2021/09/16 02:39:38;;;;;;;5.17;1.50;;;;;;;;;;4961004;28;20206;-77
2021/09/16 02:42:04;;;;;;;4.73;1.53;;;;;;;;;;4957038;28;20191;-77
2021/09/16 02:44:29;;;;;;;5.83;1.70;;;;;;;;;;4960561;28;20187;-77
2021/09/16 02:46:54;;;;;;;7.00;1.80;;;;;;;;;;4960120;28;20190;-78
2021/09/16 02:49:19;;;;;;;7.57;1.57;;;;;;;;;;4962081;28;20847;-78
2021/09/16 02:51:45;;;;;;;4.20;1.20;;;;;;;;;;4958065;28;20582;-77
2021/09/16 02:54:10;;;;;;;3.23;1.33;;;;;;;;;;4957600;28;20195;-78
2021/09/16 02:56:35;;;;;;;3.07;1.50;;;;;;;;;;4955563;28;20603;-77
2021/09/16 02:59:00;;;;;;;2.00;1.63;;;;;;;;;;4958139;28;20218;-76
2021/09/16 03:01:26;;;;;;;3.10;0.93;;;;;;;;;;4959397;28;20883;-77
2021/09/16 03:03:51;;;;;;;3.07;1.40;;;;;;;;;;4959942;28;20187;-76
2021/09/16 03:06:16;;;;;;;2.60;1.20;;;;;;;;;;4958254;28;20194;-77
2021/09/16 03:08:41;;;;;;;3.33;1.60;;;;;;;;;;4958336;28;20198;-77
2021/09/16 03:11:07;;;;;;;3.80;1.40;;;;;;;;;;4959165;28;20679;-77
2021/09/16 03:13:32;;;;;;;3.43;1.27;;;;;;;;;;4956768;28;20592;-77
2021/09/16 03:15:57;;;;;;;4.60;1.80;;;;;;;;;;4959287;28;20174;-77
2021/09/16 03:18:22;;;;;;;3.03;1.73;;;;;;;;;;4956513;28;20198;-77
2021/09/16 03:20:48;;;;;;;2.60;1.20;;;;;;;;;;4958669;28;20185;-77
2021/09/16 03:23:13;;;;;;;5.37;1.60;;;;;;;;;;4960408;28;20194;-77
2021/09/16 03:25:38;;;;;;;2.37;1.30;;;;;;;;;;4957684;28;20187;-76
2021/09/16 03:28:04;;;;;;;4.20;1.63;;;;;;;;;;4957990;28;20675;-77
2021/09/16 03:30:29;;;;;;;3.40;1.37;;;;;;;;;;4957939;28;20699;-77
2021/09/16 03:32:56;;;;;;;2.47;1.70;;;;;;;;;;4957877;28;20190;-77
2021/09/16 03:35:21;;;;;;;2.57;1.37;;;;;;;;;;4960964;28;20187;-77
2021/09/16 03:37:47;;;;;;;4.20;1.60;;;;;;;;;;4958644;28;20883;-77
2021/09/16 03:40:12;;;;;;;3.53;1.70;;;;;;;;;;4958456;28;20185;-76
2021/09/16 03:42:37;;;;;;;4.43;1.80;;;;;;;;;;4960514;28;20194;-77
2021/09/16 03:45:03;;;;;;;3.80;1.60;;;;;;;;;;4957505;28;20290;-77
2021/09/16 03:47:28;;;;;;;5.63;1.77;;;;;;;;;;4958048;28;20218;-78
2021/09/16 03:49:53;;;;;;;4.90;1.80;;;;;;;;;;4957250;28;20219;-77
2021/09/16 03:52:18;;;;;;;3.27;1.70;;;;;;;;;;4957411;28;20202;-77
2021/09/16 03:54:44;;;;;;;2.67;1.40;;;;;;;;;;4956271;28;20182;-77
2021/09/16 03:57:09;;;;;;;2.50;1.50;;;;;;;;;;4955369;28;20221;-77
2021/09/16 03:59:34;;;;;;;7.00;1.93;;;;;;;;;;4961065;28;20261;-77
2021/09/16 04:02:00;;;;;;;2.77;1.30;;;;;;;;;;4959527;28;20245;-78
2021/09/16 04:04:25;;;;;;;3.20;1.50;;;;;;;;;;4959466;28;20179;-77
2021/09/16 04:06:51;;;;;;;4.33;1.60;;;;;;;;;;4956077;28;20441;-77
2021/09/16 04:09:16;;;;;;;2.50;1.53;;;;;;;;;;4958421;28;20218;-77
2021/09/16 04:11:41;;;;;;;2.77;1.50;;;;;;;;;;4958645;28;20195;-77
2021/09/16 04:14:07;;;;;;;4.67;1.50;;;;;;;;;;4958414;28;20186;-78
2021/09/16 04:16:32;;;;;;;3.43;2.00;;;;;;;;;;4958200;28;20650;-77
2021/09/16 04:18:57;;;;;;;3.50;1.87;;;;;;;;;;4955776;28;20206;-77
2021/09/16 04:21:23;;;;;;;3.23;1.70;;;;;;;;;;4959227;28;20188;-77
2021/09/16 04:23:48;;;;;;;4.50;1.87;;;;;;;;;;4959570;28;20195;-77
2021/09/16 04:26:14;;;;;;;6.17;1.70;;;;;;;;;;4960124;28;20182;-77
2021/09/16 04:28:39;;;;;;;5.70;1.93;;;;;;;;;;4958514;28;20198;-78
2021/09/16 04:31:05;;;;;;;8.27;1.77;;;;;;;;;;4960516;28;20290;-77
2021/09/16 04:33:30;;;;;;;3.70;1.60;;;;;;;;;;4958996;28;20318;-77
2021/09/16 04:35:55;;;;;;;2.97;1.73;;;;;;;;;;4962471;28;20263;-77
2021/09/16 04:38:20;;;;;;;3.10;1.50;;;;;;;;;;4961337;28;20596;-78
2021/09/16 04:40:46;;;;;;;4.10;2.33;;;;;;;;;;4961582;28;20278;-77
2021/09/16 04:43:11;;;;;;;3.97;2.07;;;;;;;;;;4961859;28;20197;-78
2021/09/16 04:45:36;;;;;;;3.47;2.10;;;;;;;;;;4962484;28;20293;-78
2021/09/16 04:48:02;;;;;;;5.50;2.27;;;;;;;;;;4962097;28;20268;-77
2021/09/16 04:50:27;;;;;;;3.70;2.30;;;;;;;;;;4960687;28;20187;-78
2021/09/16 04:52:52;;;;;;;4.47;2.20;;;;;;;;;;4961379;28;20183;-78
2021/09/16 04:55:18;;;;;;;7.63;2.63;;;;;;;;;;4961437;28;20191;-78
2021/09/16 04:57:43;;;;;;;2.47;2.27;;;;;;;;;;4961898;28;20207;-77
2021/09/16 05:00:09;;;;;;;9.20;3.13;;;;;;;;;;4959392;28;20190;-77
2021/09/16 05:02:34;;;;;;;4.40;2.33;;;;;;;;;;4959763;28;20193;-78
2021/09/16 05:04:59;;;;;;;8.20;2.67;;;;;;;;;;4961127;28;20288;-77
2021/09/16 05:07:24;;;;;;;2.40;2.20;;;;;;;;;;4963428;28;20206;-78
2021/09/16 05:09:50;;;;;;;7.77;3.30;;;;;;;;;;4959702;28;20210;-77
2021/09/16 05:12:15;;;;;;;4.20;2.33;;;;;;;;;;4958754;28;20277;-77
2021/09/16 05:14:40;;;;;;;7.87;2.70;;;;;;;;;;4959994;28;20186;-77
2021/09/16 05:17:06;;;;;;;6.37;2.30;;;;;;;;;;4959706;28;20261;-76
2021/09/16 05:19:31;;;;;;;8.37;3.13;;;;;;;;;;4958076;28;20179;-77
2021/09/16 05:21:56;;;;;;;6.40;2.87;;;;;;;;;;4959743;28;20183;-77
2021/09/16 05:24:21;;;;;;;6.50;2.20;;;;;;;;;;4961797;28;20823;-77
2021/09/16 05:26:47;;;;;;;6.93;2.70;;;;;;;;;;4960392;28;20281;-76
2021/09/16 05:29:13;;;;;;;3.83;2.50;;;;;;;;;;4956355;28;20304;-76
2021/09/16 05:31:38;;;;;;;7.50;3.27;;;;;;;;;;4966431;28;20233;-76
2021/09/16 05:34:03;;;;;;;8.60;3.00;;;;;;;;;;4959837;28;20190;-77
2021/09/16 05:36:28;;;;;;;5.63;2.90;;;;;;;;;;4958781;28;20847;-77
2021/09/16 05:38:54;;;;;;;4.37;2.40;;;;;;;;;;4960950;28;20198;-77
2021/09/16 05:41:19;;;;;;;3.97;2.73;;;;;;;;;;4960643;28;20210;-76
2021/09/16 05:43:44;;;;;;;3.53;2.60;;;;;;;;;;4964226;28;20269;-77
2021/09/16 05:46:10;;;;;;;6.23;3.40;;;;;;;;;;4959031;28;20187;-77
2021/09/16 05:48:35;;;;;;;7.07;3.27;;;;;;;;;;4959987;28;20715;-77
2021/09/16 05:51:00;;;;;;;5.10;2.70;;;;;;;;;;4962532;28;20206;-78
2021/09/16 05:53:25;;;;;;;7.90;3.13;;;;;;;;;;4960329;28;20545;-78
2021/09/16 05:55:51;;;;;;;6.80;3.00;;;;;;;;;;4962944;28;20221;-77
2021/09/16 05:58:16;;;;;;;7.03;3.00;;;;;;;;;;4957776;28;20678;-78
2021/09/16 06:00:41;;;;;;;9.50;3.20;;;;;;;;;;4960786;28;20277;-79
2021/09/16 06:03:06;;;;;;;7.77;3.33;;;;;;;;;;4960935;28;20213;-78
2021/09/16 06:05:31;;;;;;;5.23;2.47;;;;;;;;;;4961725;28;20201;-78
2021/09/16 06:07:57;;;;;;;11.37;3.50;;;;;;;;;;4960045;28;20666;-78
2021/09/16 06:10:22;;;;;;;5.60;2.47;;;;;;;;;;4956162;28;20186;-79
2021/09/16 06:12:47;;;;;;;6.73;2.73;;;;;;;;;;4960027;28;20214;-79
2021/09/16 06:15:12;;;;;;;4.07;1.97;;;;;;;;;;4974203;28;20194;-79
2021/09/16 06:17:38;;;;;;;8.70;2.40;;;;;;;;;;4960268;28;20688;-79
2021/09/16 06:20:04;;;;;;;7.93;2.47;;;;;;;;;;4963122;28;20186;-78
2021/09/16 06:22:30;;;;;;;4.13;1.73;;;;;;;;;;4964003;28;20236;-79
2021/09/16 06:24:55;;;;;;;2.50;1.50;;;;;;;;;;4960498;28;20454;-77
2021/09/16 06:27:20;;;;;;;2.67;1.60;;;;;;;;;;4956639;28;20217;-78
2021/09/16 06:29:45;;;;;;;2.87;1.50;;;;;;;;;;4961061;28;20190;-78
2021/09/16 06:32:11;;;;;;;4.60;1.70;;;;;;;;;;4958152;28;20583;-78
2021/09/16 06:34:36;;;;;;;2.97;1.40;;;;;;;;;;4960688;28;20209;-79
2021/09/16 06:37:01;;;;;;;1.57;1.10;;;;;;;;;;4959395;28;20242;-78
2021/09/16 06:39:26;;;;;;;6.83;1.77;;;;;;;;;;4957545;28;20244;-77
2021/09/16 06:41:52;;;;;;;4.67;1.50;;;;;;;;;;4960179;28;20222;-77
2021/09/16 06:44:17;;;;;;;3.10;1.13;;;;;;;;;;4959656;28;20194;-77
2021/09/16 06:46:42;;;;;;;5.47;1.50;;;;;;;;;;4956041;28;20191;-76
2021/09/16 06:49:08;;;;;;;3.00;1.00;;;;;;;;;;4958725;28;20207;-77
2021/09/16 06:51:33;;;;;;;6.67;1.63;;;;;;;;;;4955349;28;20289;-78
2021/09/16 06:53:58;;;;;;;5.40;1.40;;;;;;;;;;4956880;28;20267;-78
2021/09/16 06:56:23;;;;;;;3.20;1.40;;;;;;;;;;4956784;28;20675;-77
2021/09/16 06:58:49;;;;;;;4.67;1.10;;;;;;;;;;4956538;28;20660;-77
2021/09/16 07:01:14;;;;;;;7.70;1.93;;;;;;;;;;4959741;28;20190;-77
2021/09/16 07:03:39;;;;;;;4.70;1.13;;;;;;;;;;4958416;28;20194;-77
2021/09/16 07:06:04;;;;;;;5.07;1.87;;;;;;;;;;4960147;28;20285;-78
2021/09/16 07:08:30;;;;;;;4.43;1.60;;;;;;;;;;4960640;28;20711;-78
2021/09/16 07:10:55;;;;;;;8.13;2.10;;;;;;;;;;4960003;28;20738;-78
2021/09/16 07:13:20;;;;;;;6.60;1.50;;;;;;;;;;4958093;28;20285;-78
2021/09/16 07:15:45;;;;;;;5.70;2.17;;;;;;;;;;4961601;28;20186;-78
2021/09/16 07:18:11;;;;;;;5.47;1.70;;;;;;;;;;4959641;28;20218;-78
2021/09/16 07:20:36;;;;;;;5.20;1.57;;;;;;;;;;4957411;28;20197;-77
2021/09/16 07:23:01;;;;;;;7.50;2.13;;;;;;;;;;4955496;28;20218;-76
2021/09/16 07:25:26;;;;;;;6.33;1.67;;;;;;;;;;4956566;28;20876;-77
2021/09/16 07:27:52;;;;;;;5.50;1.33;;;;;;;;;;4957841;28;20575;-77
2021/09/16 07:30:17;;;;;;;3.37;1.20;;;;;;;;;;4960780;28;20636;-78
2021/09/16 07:32:45;;;;;;;5.43;2.00;;;;;;;;;;4960774;28;20698;-77
2021/09/16 07:35:11;;;;;;;4.43;1.53;;;;;;;;;;4955374;28;20207;-78
2021/09/16 07:37:36;;;;;;;3.37;1.37;;;;;;;;;;4957764;28;20457;-78
2021/09/16 07:40:02;;;;;;;3.77;1.47;;;;;;;;;;4956100;28;21085;-77
2021/09/16 07:42:27;;;;;;;5.97;1.43;;;;;;;;;;4956793;28;20218;-78
2021/09/16 07:44:53;;;;;;;5.70;1.57;;;;;;;;;;4956031;28;20453;-77
2021/09/16 07:47:18;;;;;;;5.03;1.43;;;;;;;;;;4952828;28;20230;-75
2021/09/16 07:49:45;;;;;;;7.27;1.43;;;;;;;;;;4952682;28;20195;-76
2021/09/16 07:52:10;;;;;;;2.47;1.40;;;;;;;;;;4955917;28;20207;-76
2021/09/16 07:54:35;;;;;;;4.40;1.10;;;;;;;;;;4956222;28;21081;-77
2021/09/16 07:57:01;;;;;;;3.80;1.40;;;;;;;;;;4955956;28;20274;-77
2021/09/16 07:59:27;;;;;;;8.57;1.77;;;;;;;;;;4957676;28;20201;-76
2021/09/16 08:01:52;;;;;;;5.70;1.53;;;;;;;;;;4959791;28;20182;-76
2021/09/16 08:04:17;;;;;;;7.87;1.40;;;;;;;;;;4958692;28;20433;-77
2021/09/16 08:06:43;;;;;;;4.93;1.40;;;;;;;;;;4962245;28;20194;-77
2021/09/16 08:09:08;;;;;;;3.70;1.80;;;;;;;;;;4964145;28;20253;-77
2021/09/16 08:11:33;;;;;;;5.83;1.33;;;;;;;;;;4958023;28;20976;-77
2021/09/16 08:13:58;;;;;;;4.93;1.87;;;;;;;;;;4962340;28;20261;-76
2021/09/16 08:16:24;;;;;;;3.80;1.57;;;;;;;;;;4963919;28;20187;-77
2021/09/16 08:18:49;;;;;;;5.60;1.90;;;;;;;;;;4961153;28;20226;-77
2021/09/16 08:21:15;;;;;;;6.80;1.17;;;;;;;;;;4959645;28;20183;-77
2021/09/16 08:23:41;;;;;;;7.33;1.83;;;;;;;;;;4961212;28;20217;-77
2021/09/16 08:26:06;;;;;;;6.27;1.60;;;;;;;;;;4962524;28;20438;-77
2021/09/16 08:28:34;;;;;;;3.93;1.63;;;;;;;;;;4960133;28;20521;-76
2021/09/16 08:30:59;;;;;;;4.30;1.27;;;;;;;;;;4960530;28;20293;-77
2021/09/16 08:33:25;;;;;;;2.87;1.43;;;;;;;;;;4956525;28;20532;-78
2021/09/16 08:35:50;;;;;;;4.80;1.60;;;;;;;;;;4960840;28;20185;-77
2021/09/16 08:38:15;;;;;;;5.30;1.57;;;;;;;;;;4961424;28;20210;-78
2021/09/16 08:40:41;;;;;;;4.73;1.60;;;;;;;;;;4959884;28;20238;-77
2021/09/16 08:43:10;;;;;;;4.60;1.47;;;;;;;;;;4963129;28;20183;-77
2021/09/16 08:45:36;;;;;;;4.17;1.67;;;;;;;;;;4961380;28;20575;-77
2021/09/16 08:48:01;;;;;;;4.73;1.50;;;;;;;;;;4958955;28;20457;-77
2021/09/16 08:50:27;;;;;;;8.43;1.70;;;;;;;;;;4961347;28;22414;-77
2021/09/16 08:52:52;;;;;;;6.60;1.50;;;;;;;;;;4963310;28;20206;-78
2021/09/16 08:55:19;;;;;;;8.40;1.90;;;;;;;;;;4961943;28;20442;-77
2021/09/16 08:57:45;;;;;;;5.83;1.80;;;;;;;;;;4961658;28;20695;-77
2021/09/16 09:00:15;;;;;;;4.70;1.57;;;;;;;;;;4957092;28;20435;-77
2021/09/16 09:02:42;;;;;;;8.40;2.13;;;;;;;;;;4962912;28;20441;-77
2021/09/16 09:05:08;;;;;;;4.20;1.83;;;;;;;;;;4961587;28;20525;-77
2021/09/16 09:08:00;;;;;;;6.20;2.27;;;;;;;;;;4960820;28;20941;-77
2021/09/16 09:10:36;;;;;;;5.10;2.00;;;;;;;;;;4960371;28;20800;-76
2021/09/16 09:13:02;;;;;;;3.77;1.50;;;;;;;;;;4961538;28;20445;-76
2021/09/16 09:15:27;;;;;;;7.53;1.77;;;;;;;;;;4958523;28;20449;-77
2021/09/16 09:18:11;;;;;;;9.03;2.00;;;;;;;;;;4960247;28;21002;-77
2021/09/16 09:20:57;;;;;;;5.20;1.93;;;;;;;;;;4960404;28;20238;-76
2021/09/16 09:23:22;;;;;;;3.77;1.97;;;;;;;;;;4959906;28;20446;-77
2021/09/16 09:25:47;;;;;;;11.37;2.47;;;;;;;;;;4963064;28;20430;-77
2021/09/16 09:28:24;;;;;;;5.07;1.93;;;;;;;;;;4960526;28;20258;-77
2021/09/16 09:30:49;;;;;;;4.47;2.10;;;;;;;;;;4960540;28;20241;-77
2021/09/16 09:33:14;;;;;;;8.57;1.90;;;;;;;;;;4961304;28;20427;-77
2021/09/16 09:35:41;;;;;;;5.40;1.93;;;;;;;;;;4956227;28;20234;-77
2021/09/16 09:38:15;;;;;;;8.80;2.00;;;;;;;;;;4959233;28;20211;-76
2021/09/16 09:40:41;;;;;;;7.10;2.10;;;;;;;;;;4957403;28;20425;-78
2021/09/16 09:43:17;;;;;;;6.10;2.17;;;;;;;;;;4961015;28;21214;-77
2021/09/16 09:46:01;;;;;;;6.60;1.70;;;;;;;;;;4961540;28;20183;-77
2021/09/16 09:48:27;;;;;;;6.63;1.93;;;;;;;;;;4960355;28;20449;-77
2021/09/16 09:50:53;;;;;;;5.53;2.20;;;;;;;;;;4959096;28;20481;-77
2021/09/16 09:53:18;;;;;;;4.30;1.90;;;;;;;;;;4962378;28;20304;-76
2021/09/16 09:55:44;;;;;;;5.00;1.80;;;;;;;;;;4958833;28;20197;-77
2021/09/16 09:58:09;;;;;;;4.33;1.67;;;;;;;;;;4959631;28;20261;-77
2021/09/16 10:00:34;;;;;;;4.07;1.37;;;;;;;;;;4956518;28;20624;-77
2021/09/16 10:03:00;;;;;;;3.10;1.50;;;;;;;;;;4958769;28;20179;-77
2021/09/16 10:05:27;;;;;;;4.00;1.30;;;;;;;;;;4960911;28;20682;-77
2021/09/16 10:07:53;;;;;;;5.63;1.70;;;;;;;;;;4960504;28;20472;-77
2021/09/16 10:10:19;;;;;;;4.10;1.30;;;;;;;;;;4962337;28;21180;-77
2021/09/16 10:12:45;;;;;;;4.60;1.50;;;;;;;;;;4960533;28;20464;-77
2021/09/16 10:15:12;;;;;;;6.93;1.60;;;;;;;;;;4962662;28;20175;-77
2021/09/16 10:17:38;;;;;;;3.57;1.40;;;;;;;;;;4960666;28;20282;-77
2021/09/16 10:20:04;;;;;;;4.13;1.67;;;;;;;;;;4961893;28;20442;-77
2021/09/16 10:22:29;;;;;;;3.70;1.77;;;;;;;;;;4957264;28;20450;-78
2021/09/16 10:24:55;;;;;;;5.10;1.80;;;;;;;;;;4960108;28;20258;-77
2021/09/16 10:27:27;;;;;;;4.87;1.67;;;;;;;;;;4958178;28;20202;-78
2021/09/16 10:29:52;;;;;;;5.57;1.60;;;;;;;;;;4961790;28;20179;-77
2021/09/16 10:32:17;;;;;;;3.70;1.60;;;;;;;;;;4963430;28;20524;-77
2021/09/16 10:34:56;;;;;;;6.97;2.00;;;;;;;;;;4962290;28;20233;-77
2021/09/16 10:37:22;;;;;;;8.13;2.13;;;;;;;;;;4963223;28;20439;-78
2021/09/16 10:39:47;;;;;;;5.73;1.87;;;;;;;;;;4961642;28;20802;-77
2021/09/16 10:42:13;;;;;;;4.43;1.87;;;;;;;;;;4961927;28;20187;-77
2021/09/16 10:44:39;;;;;;;5.97;2.03;;;;;;;;;;4959097;28;20183;-76
2021/09/16 10:47:14;;;;;;;5.57;1.70;;;;;;;;;;4960169;28;20186;-78
2021/09/16 10:49:40;;;;;;;2.93;1.43;;;;;;;;;;4960107;28;20179;-77
2021/09/16 10:52:11;;;;;;;5.53;2.90;;;;;;;;;;4959895;28;20520;-77
2021/09/16 10:55:05;;;;;;;6.77;1.33;;;;;;;;;;4961726;28;20185;-77
2021/09/16 10:57:35;;;;;;;5.10;1.83;;;;;;;;;;4961318;28;20482;-77
2021/09/16 11:00:05;;;;;;;6.73;2.50;;;;;;;;;;4960520;28;20434;-76
2021/09/16 11:02:30;;;;;;;3.43;1.60;;;;;;;;;;4961186;28;20445;-76
2021/09/16 11:04:59;;;;;;;7.07;2.00;;;;;;;;;;4958737;28;20430;-77
2021/09/16 11:07:30;;;;;;;3.43;1.53;;;;;;;;;;4960819;28;20195;-77
2021/09/16 11:09:55;;;;;;;8.00;2.17;;;;;;;;;;4962598;28;20760;-77
2021/09/16 11:12:30;;;;;;;10.43;1.60;;;;;;;;;;4957720;28;20477;-77
2021/09/16 11:14:56;;;;;;;3.70;2.00;;;;;;;;;;4962752;28;20185;-77
2021/09/16 11:17:25;;;;;;;4.03;1.97;;;;;;;;;;4942751;28;20956;-76
2021/09/16 11:19:51;;;;;;;6.30;2.10;;;;;;;;;;4949313;28;20970;-74
2021/09/16 11:22:22;;;;;;;6.63;2.57;;;;;;;;;;4955570;28;20450;-75
2021/09/16 11:24:48;;;;;;;8.17;2.20;;;;;;;;;;4954763;28;20241;-75
2021/09/16 11:27:23;;;;;;;5.40;2.23;;;;;;;;;;4959852;28;20989;-74
2021/09/16 11:29:48;;;;;;;5.20;2.03;;;;;;;;;;4955988;28;20433;-74
2021/09/16 11:32:14;;;;;;;6.90;2.13;;;;;;;;;;4959296;28;20462;-75
2021/09/16 11:34:59;;;;;;;6.40;2.80;;;;;;;;;;4958224;28;20183;-75
2021/09/16 11:37:32;;;;;;;3.73;1.80;;;;;;;;;;4956131;28;20211;-76
2021/09/16 11:40:13;;;;;;;7.00;2.33;;;;;;;;;;4958641;28;20423;-76
2021/09/16 11:42:40;;;;;;;11.00;3.00;;;;;;;;;;4959422;28;20430;-75
2021/09/16 11:45:07;;;;;;;4.63;2.30;;;;;;;;;;4958722;28;20441;-75
2021/09/16 11:47:37;;;;;;;11.67;2.37;;;;;;;;;;4954629;28;20481;-75
2021/09/16 11:50:02;;;;;;;5.73;2.10;;;;;;;;;;4959812;28;20443;-75
2021/09/16 11:52:27;;;;;;;4.17;2.10;;;;;;;;;;4958330;28;20504;-75
2021/09/16 11:55:03;;;;;;;6.47;2.40;;;;;;;;;;4959948;28;20692;-76
2021/09/16 11:57:28;;;;;;;6.83;2.10;;;;;;;;;;4960975;28;20205;-77
2021/09/16 11:59:54;;;;;;;4.73;2.00;;;;;;;;;;4957810;28;20438;-76
2021/09/16 12:02:19;;;;;;;8.27;2.80;;;;;;;;;;4958038;28;20608;-76
2021/09/16 12:04:45;;;;;;;8.10;1.80;;;;;;;;;;4957628;28;20186;-77
2021/09/16 12:07:14;;;;;;;6.10;2.03;;;;;;;;;;4958578;28;20229;-77
2021/09/16 12:09:39;;;;;;;5.60;1.70;;;;;;;;;;4958667;28;20940;-76
2021/09/16 12:12:04;;;;;;;9.60;2.40;;;;;;;;;;4961286;28;20462;-78
2021/09/16 12:14:31;;;;;;;4.80;1.70;;;;;;;;;;4958859;28;20176;-76
2021/09/16 12:17:03;;;;;;;6.03;1.93;;;;;;;;;;4961079;28;20175;-76
2021/09/16 12:19:29;;;;;;;8.83;2.70;;;;;;;;;;4958606;28;20429;-75
2021/09/16 12:21:57;;;;;;;6.00;2.00;;;;;;;;;;4957520;28;20484;-74
2021/09/16 12:24:26;;;;;;;7.90;2.20;;;;;;;;;;4955836;28;20190;-75
2021/09/16 12:26:54;;;;;;;4.30;2.13;;;;;;;;;;4955660;28;20451;-75
2021/09/16 12:29:23;;;;;;;5.53;1.80;;;;;;;;;;4956868;28;20442;-75
2021/09/16 12:31:54;;;;;;;5.77;2.83;;;;;;;;;;4959323;28;20557;-76
2021/09/16 12:34:19;;;;;;;7.77;2.43;;;;;;;;;;4959646;28;20879;-77
2021/09/16 12:36:55;;;;;;;6.10;1.20;;;;;;;;;;4959501;28;20423;-76
2021/09/16 12:39:20;;;;;;;4.87;1.53;;;;;;;;;;4959358;28;20190;-76
2021/09/16 12:41:48;;;;;;;5.47;1.97;;;;;;;;;;4960732;28;20452;-76
2021/09/16 12:44:14;;;;;;;6.03;2.20;;;;;;;;;;4959032;28;20209;-75
2021/09/16 12:46:44;;;;;;;5.40;1.90;;;;;;;;;;4957679;28;20434;-76
2021/09/16 12:49:29;;;;;;;4.13;1.73;;;;;;;;;;4955288;28;20202;-77
2021/09/16 12:51:56;;;;;;;4.90;1.47;;;;;;;;;;4953524;28;20465;-75
2021/09/16 12:54:21;;;;;;;6.50;1.50;;;;;;;;;;4961519;28;20434;-75
2021/09/16 12:56:48;;;;;;;2.90;1.50;;;;;;;;;;4964435;28;20430;-76
2021/09/16 12:59:18;;;;;;;4.47;1.70;;;;;;;;;;4976197;28;20633;-75
2021/09/16 13:01:44;;;;;;;7.30;1.73;;;;;;;;;;4963738;28;20488;-75
2021/09/16 13:04:10;;;;;;;3.23;1.40;;;;;;;;;;4962046;28;20437;-75
2021/09/16 13:06:35;;;;;;;6.93;2.13;;;;;;;;;;4958597;28;20533;-75
2021/09/16 13:09:00;;;;;;;8.43;1.90;;;;;;;;;;4963241;28;20230;-75
2021/09/16 13:11:26;;;;;;;6.77;1.70;;;;;;;;;;4961444;28;20222;-76
2021/09/16 13:14:04;;;;;;;8.23;1.93;;;;;;;;;;4960019;28;20201;-75
2021/09/16 13:16:30;;;;;;;7.63;1.63;;;;;;;;;;4957867;28;20233;-75
2021/09/16 13:18:55;;;;;;;6.70;1.60;;;;;;;;;;4960527;28;20454;-76
2021/09/16 13:21:20;;;;;;;11.63;1.53;;;;;;;;;;4957592;28;20551;-75
2021/09/16 13:23:45;;;;;;;4.57;1.47;;;;;;;;;;4959091;28;20202;-75
2021/09/16 13:26:11;;;;;;;7.43;2.00;;;;;;;;;;4958896;28;20182;-75
2021/09/16 13:28:36;;;;;;;7.30;1.77;;;;;;;;;;4958721;28;20217;-76
2021/09/16 13:31:01;;;;;;;7.47;1.70;;;;;;;;;;4962043;28;20589;-77
2021/09/16 13:33:26;;;;;;;2.53;1.30;;;;;;;;;;4963011;28;20576;-78
2021/09/16 13:35:52;;;;;;;5.03;2.00;;;;;;;;;;4962969;28;20182;-78
2021/09/16 13:38:17;;;;;;;4.90;1.50;;;;;;;;;;4962688;28;20202;-77
2021/09/16 13:40:42;;;;;;;4.50;1.97;;;;;;;;;;4959587;28;20643;-77
2021/09/16 13:43:08;;;;;;;4.53;1.57;;;;;;;;;;4960269;28;20614;-76
2021/09/16 13:45:33;;;;;;;7.73;1.50;;;;;;;;;;4960351;28;20186;-76
2021/09/16 13:47:59;;;;;;;3.13;1.30;;;;;;;;;;4958735;28;20200;-77
2021/09/16 13:50:24;;;;;;;4.67;1.93;;;;;;;;;;4958567;28;20281;-77
2021/09/16 13:52:49;;;;;;;7.70;1.63;;;;;;;;;;4954302;28;21612;-76
2021/09/16 13:55:15;;;;;;;3.93;1.20;;;;;;;;;;4956432;28;20632;-77
2021/09/16 13:57:41;;;;;;;5.57;1.50;;;;;;;;;;4957638;28;20207;-76
2021/09/16 14:00:07;;;;;;;3.47;1.53;;;;;;;;;;4959980;28;20183;-77
2021/09/16 14:02:33;;;;;;;4.30;1.33;;;;;;;;;;4958650;28;20433;-77
2021/09/16 14:04:58;;;;;;;6.07;1.77;;;;;;;;;;4960947;28;20489;-77
2021/09/16 14:07:26;;;;;;;3.10;1.20;;;;;;;;;;4961230;28;20238;-77
2021/09/16 14:09:51;;;;;;;3.23;1.47;;;;;;;;;;4963062;28;20275;-77
2021/09/16 14:12:16;;;;;;;3.40;1.10;;;;;;;;;;4962421;28;21031;-77
2021/09/16 14:14:42;;;;;;;3.33;1.30;;;;;;;;;;4963161;28;20171;-77
2021/09/16 14:17:07;;;;;;;4.40;1.10;;;;;;;;;;4962627;28;20237;-77
2021/09/16 14:19:32;;;;;;;5.07;1.10;;;;;;;;;;4962562;28;20182;-77
2021/09/16 14:21:57;;;;;;;8.80;1.50;;;;;;;;;;4961846;28;20285;-76
2021/09/16 14:24:23;;;;;;;4.20;1.30;;;;;;;;;;4961268;28;20178;-77
2021/09/16 14:26:48;;;;;;;4.10;1.50;;;;;;;;;;4961233;28;20186;-76
2021/09/16 14:29:13;;;;;;;3.63;1.30;;;;;;;;;;4961619;28;20294;-77
2021/09/16 14:31:38;;;;;;;5.90;1.47;;;;;;;;;;4956826;28;20303;-76
2021/09/16 14:34:04;;;;;;;4.30;1.27;;;;;;;;;;4959789;28;20175;-77
2021/09/16 14:36:29;;;;;;;3.67;1.30;;;;;;;;;;4962102;28;20211;-77
2021/09/16 14:38:54;;;;;;;4.87;1.77;;;;;;;;;;4961282;28;20198;-77